sensor_id;sensor_type;location;lat;lon;timestamp;temperature;humidity
5775;DHT22;2913;51.120;6.772;2022-12-18T00:01:17;-3.30;99.90
5775;DHT22;2913;51.120;6.772;2022-12-18T00:03:46;-3.40;99.90
5775;DHT22;2913;51.120;6.772;2022-12-18T00:06:12;-3.40;99.90
5775;DHT22;2913;51.120;6.772;2022-12-18T00:08:41;-3.40;99.90
5775;DHT22;2913;51.120;6.772;2022-12-18T00:11:09;-3.40;99.90
5775;DHT22;2913;51.120;6.772;2022-12-18T00:13:35;-3.40;99.90
5775;DHT22;2913;51.120;6.772;2022-12-18T00:16:02;-3.40;99.90
5775;DHT22;2913;51.120;6.772;2022-12-18T00:18:33;-3.40;99.90
5775;DHT22;2913;51.120;6.772;2022-12-18T00:21:03;-3.40;99.90
5775;DHT22;2913;51.120;6.772;2022-12-18T00:23:30;-3.40;99.90
5775;DHT22;2913;51.120;6.772;2022-12-18T00:26:07;-3.40;99.90
5775;DHT22;2913;51.120;6.772;2022-12-18T00:28:33;-3.40;99.90
5775;DHT22;2913;51.120;6.772;2022-12-18T00:31:06;-3.40;99.90
5775;DHT22;2913;51.120;6.772;2022-12-18T00:33:32;-3.40;99.90
5775;DHT22;2913;51.120;6.772;2022-12-18T00:36:13;-3.40;99.90
5775;DHT22;2913;51.120;6.772;2022-12-18T00:38:44;-3.40;99.90
5775;DHT22;2913;51.120;6.772;2022-12-18T00:41:11;-3.40;99.90
5775;DHT22;2913;51.120;6.772;2022-12-18T00:43:38;-3.40;99.90
5775;DHT22;2913;51.120;6.772;2022-12-18T00:46:05;-3.40;99.90
5775;DHT22;2913;51.120;6.772;2022-12-18T00:48:31;-3.50;99.90
5775;DHT22;2913;51.120;6.772;2022-12-18T00:50:56;-3.60;99.90
5775;DHT22;2913;51.120;6.772;2022-12-18T00:53:24;-3.50;99.90
5775;DHT22;2913;51.120;6.772;2022-12-18T00:55:52;-3.50;99.90
5775;DHT22;2913;51.120;6.772;2022-12-18T00:58:18;-3.60;99.90
5775;DHT22;2913;51.120;6.772;2022-12-18T01:00:44;-3.60;99.90
5775;DHT22;2913;51.120;6.772;2022-12-18T01:03:13;-3.60;99.90
5775;DHT22;2913;51.120;6.772;2022-12-18T01:05:40;-3.60;99.90
5775;DHT22;2913;51.120;6.772;2022-12-18T01:08:06;-3.60;99.90
5775;DHT22;2913;51.120;6.772;2022-12-18T01:10:31;-3.60;99.90
5775;DHT22;2913;51.120;6.772;2022-12-18T01:12:57;-3.60;99.90
5775;DHT22;2913;51.120;6.772;2022-12-18T01:15:23;-3.60;99.90
5775;DHT22;2913;51.120;6.772;2022-12-18T01:17:51;-3.60;99.90
5775;DHT22;2913;51.120;6.772;2022-12-18T01:20:19;-3.50;99.90
5775;DHT22;2913;51.120;6.772;2022-12-18T01:22:45;-3.50;99.90
5775;DHT22;2913;51.120;6.772;2022-12-18T01:25:10;-3.50;99.90
5775;DHT22;2913;51.120;6.772;2022-12-18T01:27:38;-3.50;99.90
5775;DHT22;2913;51.120;6.772;2022-12-18T01:30:05;-3.50;99.90
5775;DHT22;2913;51.120;6.772;2022-12-18T01:32:31;-3.50;99.90
5775;DHT22;2913;51.120;6.772;2022-12-18T01:34:57;-3.60;99.90
5775;DHT22;2913;51.120;6.772;2022-12-18T01:37:23;-3.60;99.90
5775;DHT22;2913;51.120;6.772;2022-12-18T01:39:48;-3.60;99.90
5775;DHT22;2913;51.120;6.772;2022-12-18T01:42:16;-3.60;99.90
5775;DHT22;2913;51.120;6.772;2022-12-18T01:50:40;-3.60;99.90
5775;DHT22;2913;51.120;6.772;2022-12-18T01:53:20;-3.60;99.90
5775;DHT22;2913;51.120;6.772;2022-12-18T01:55:57;-3.60;99.90
5775;DHT22;2913;51.120;6.772;2022-12-18T01:59:03;-3.60;99.90
5775;DHT22;2913;51.120;6.772;2022-12-18T02:01:31;-3.70;99.90
5775;DHT22;2913;51.120;6.772;2022-12-18T02:04:21;-3.60;99.90
5775;DHT22;2913;51.120;6.772;2022-12-18T02:06:56;-3.60;99.90
5775;DHT22;2913;51.120;6.772;2022-12-18T02:09:55;-3.60;99.90
5775;DHT22;2913;51.120;6.772;2022-12-18T02:12:30;-3.60;99.90
5775;DHT22;2913;51.120;6.772;2022-12-18T02:15:35;-3.50;99.90
5775;DHT22;2913;51.120;6.772;2022-12-18T02:18:23;-3.50;99.90
5775;DHT22;2913;51.120;6.772;2022-12-18T02:21:01;-3.50;99.90
5775;DHT22;2913;51.120;6.772;2022-12-18T02:26:24;-3.40;99.90
5775;DHT22;2913;51.120;6.772;2022-12-18T02:29:02;-3.40;99.90
5775;DHT22;2913;51.120;6.772;2022-12-18T02:31:35;-3.40;99.90
5775;DHT22;2913;51.120;6.772;2022-12-18T02:34:04;-3.40;99.90
5775;DHT22;2913;51.120;6.772;2022-12-18T02:36:36;-3.30;99.90
5775;DHT22;2913;51.120;6.772;2022-12-18T02:39:03;-3.30;99.90
5775;DHT22;2913;51.120;6.772;2022-12-18T02:41:33;-3.30;99.90
5775;DHT22;2913;51.120;6.772;2022-12-18T02:44:06;-3.30;99.90
5775;DHT22;2913;51.120;6.772;2022-12-18T02:46:39;-3.20;99.90
5775;DHT22;2913;51.120;6.772;2022-12-18T02:49:40;-3.20;99.90
5775;DHT22;2913;51.120;6.772;2022-12-18T03:00:23;-3.10;99.90
5775;DHT22;2913;51.120;6.772;2022-12-18T03:03:12;-3.10;99.90
5775;DHT22;2913;51.120;6.772;2022-12-18T03:08:34;-3.10;99.90
5775;DHT22;2913;51.120;6.772;2022-12-18T03:11:13;-3.10;99.90
5775;DHT22;2913;51.120;6.772;2022-12-18T03:13:44;-3.20;99.90
5775;DHT22;2913;51.120;6.772;2022-12-18T03:16:15;-3.20;99.90
5775;DHT22;2913;51.120;6.772;2022-12-18T03:19:05;-3.20;99.90
5775;DHT22;2913;51.120;6.772;2022-12-18T03:21:45;-3.20;99.90
5775;DHT22;2913;51.120;6.772;2022-12-18T03:24:11;-3.10;99.90
5775;DHT22;2913;51.120;6.772;2022-12-18T03:26:41;-3.10;99.90
5775;DHT22;2913;51.120;6.772;2022-12-18T03:29:12;-3.10;99.90
5775;DHT22;2913;51.120;6.772;2022-12-18T03:31:45;-3.10;99.90
5775;DHT22;2913;51.120;6.772;2022-12-18T03:34:21;-3.10;99.90
5775;DHT22;2913;51.120;6.772;2022-12-18T03:36:49;-3.00;99.90
5775;DHT22;2913;51.120;6.772;2022-12-18T03:39:14;-3.00;99.90
5775;DHT22;2913;51.120;6.772;2022-12-18T03:44:30;-2.90;99.90
5775;DHT22;2913;51.120;6.772;2022-12-18T03:52:36;-2.90;99.90
5775;DHT22;2913;51.120;6.772;2022-12-18T03:55:06;-2.90;99.90
5775;DHT22;2913;51.120;6.772;2022-12-18T03:57:33;-3.00;99.90
5775;DHT22;2913;51.120;6.772;2022-12-18T04:00:08;-3.00;99.90
5775;DHT22;2913;51.120;6.772;2022-12-18T04:02:37;-3.00;99.90
5775;DHT22;2913;51.120;6.772;2022-12-18T04:05:05;-3.10;99.90
5775;DHT22;2913;51.120;6.772;2022-12-18T04:07:32;-3.10;99.90
5775;DHT22;2913;51.120;6.772;2022-12-18T04:10:00;-3.10;99.90
5775;DHT22;2913;51.120;6.772;2022-12-18T04:12:28;-3.10;99.90
5775;DHT22;2913;51.120;6.772;2022-12-18T04:14:54;-3.20;99.90
5775;DHT22;2913;51.120;6.772;2022-12-18T04:17:23;-3.10;99.90
5775;DHT22;2913;51.120;6.772;2022-12-18T04:19:49;-3.10;99.90
5775;DHT22;2913;51.120;6.772;2022-12-18T04:22:17;-3.10;99.90
5775;DHT22;2913;51.120;6.772;2022-12-18T04:24:45;-3.20;99.90
5775;DHT22;2913;51.120;6.772;2022-12-18T04:27:11;-3.10;99.90
5775;DHT22;2913;51.120;6.772;2022-12-18T04:29:36;-3.10;99.90
5775;DHT22;2913;51.120;6.772;2022-12-18T04:32:04;-3.10;99.90
5775;DHT22;2913;51.120;6.772;2022-12-18T04:34:30;-3.10;99.90
5775;DHT22;2913;51.120;6.772;2022-12-18T04:36:56;-3.20;99.90
5775;DHT22;2913;51.120;6.772;2022-12-18T04:39:21;-3.20;99.90
5775;DHT22;2913;51.120;6.772;2022-12-18T04:41:49;-3.20;99.90
5775;DHT22;2913;51.120;6.772;2022-12-18T04:44:17;-3.10;99.90
5775;DHT22;2913;51.120;6.772;2022-12-18T04:46:42;-3.20;99.90
5775;DHT22;2913;51.120;6.772;2022-12-18T04:49:09;-3.20;99.90
5775;DHT22;2913;51.120;6.772;2022-12-18T04:51:36;-3.20;99.90
5775;DHT22;2913;51.120;6.772;2022-12-18T04:54:04;-3.10;99.90
5775;DHT22;2913;51.120;6.772;2022-12-18T04:56:31;-3.20;99.90
5775;DHT22;2913;51.120;6.772;2022-12-18T04:58:59;-3.20;99.90
5775;DHT22;2913;51.120;6.772;2022-12-18T05:01:27;-3.20;99.90
5775;DHT22;2913;51.120;6.772;2022-12-18T05:03:55;-3.20;99.90
5775;DHT22;2913;51.120;6.772;2022-12-18T05:06:23;-3.10;99.90
5775;DHT22;2913;51.120;6.772;2022-12-18T05:08:48;-3.20;99.90
5775;DHT22;2913;51.120;6.772;2022-12-18T05:11:15;-3.20;99.90
5775;DHT22;2913;51.120;6.772;2022-12-18T05:13:41;-3.20;99.90
5775;DHT22;2913;51.120;6.772;2022-12-18T05:16:07;-3.10;99.90
5775;DHT22;2913;51.120;6.772;2022-12-18T05:18:33;-3.10;99.90
5775;DHT22;2913;51.120;6.772;2022-12-18T05:20:59;-3.20;99.90
5775;DHT22;2913;51.120;6.772;2022-12-18T05:23:27;-3.10;99.90
5775;DHT22;2913;51.120;6.772;2022-12-18T05:28:22;-3.10;99.90
5775;DHT22;2913;51.120;6.772;2022-12-18T05:30:55;-3.10;99.90
5775;DHT22;2913;51.120;6.772;2022-12-18T05:33:25;-3.10;99.90
5775;DHT22;2913;51.120;6.772;2022-12-18T05:35:55;-3.10;99.90
5775;DHT22;2913;51.120;6.772;2022-12-18T05:38:23;-3.10;99.90
5775;DHT22;2913;51.120;6.772;2022-12-18T05:40:50;-3.00;99.90
5775;DHT22;2913;51.120;6.772;2022-12-18T05:43:16;-3.10;99.90
5775;DHT22;2913;51.120;6.772;2022-12-18T05:45:43;-3.00;99.90
5775;DHT22;2913;51.120;6.772;2022-12-18T05:48:12;-3.00;99.90
5775;DHT22;2913;51.120;6.772;2022-12-18T05:50:41;-3.00;99.90
5775;DHT22;2913;51.120;6.772;2022-12-18T05:53:07;-3.00;99.90
5775;DHT22;2913;51.120;6.772;2022-12-18T05:55:37;-3.00;99.90
5775;DHT22;2913;51.120;6.772;2022-12-18T05:58:04;-3.00;99.90
5775;DHT22;2913;51.120;6.772;2022-12-18T06:00:31;-3.00;99.90
5775;DHT22;2913;51.120;6.772;2022-12-18T06:02:58;-3.00;99.90
5775;DHT22;2913;51.120;6.772;2022-12-18T06:05:26;-3.00;99.90
5775;DHT22;2913;51.120;6.772;2022-12-18T06:07:52;-3.00;99.90
5775;DHT22;2913;51.120;6.772;2022-12-18T06:10:18;-3.00;99.90
5775;DHT22;2913;51.120;6.772;2022-12-18T06:12:43;-3.10;99.90
5775;DHT22;2913;51.120;6.772;2022-12-18T06:15:09;-3.10;99.90
5775;DHT22;2913;51.120;6.772;2022-12-18T06:17:35;-3.10;99.90
5775;DHT22;2913;51.120;6.772;2022-12-18T06:20:04;-3.10;99.90
5775;DHT22;2913;51.120;6.772;2022-12-18T06:22:32;-3.20;99.90
5775;DHT22;2913;51.120;6.772;2022-12-18T06:27:31;-3.30;99.90
5775;DHT22;2913;51.120;6.772;2022-12-18T06:30:00;-3.30;99.90
5775;DHT22;2913;51.120;6.772;2022-12-18T06:32:26;-3.30;99.90
5775;DHT22;2913;51.120;6.772;2022-12-18T06:34:52;-3.40;99.90
5775;DHT22;2913;51.120;6.772;2022-12-18T06:37:21;-3.30;99.90
5775;DHT22;2913;51.120;6.772;2022-12-18T06:39:50;-3.30;99.90
5775;DHT22;2913;51.120;6.772;2022-12-18T06:42:18;-3.30;99.90
5775;DHT22;2913;51.120;6.772;2022-12-18T06:44:43;-3.20;99.90
5775;DHT22;2913;51.120;6.772;2022-12-18T06:47:09;-3.30;99.90
5775;DHT22;2913;51.120;6.772;2022-12-18T06:49:37;-3.20;99.90
5775;DHT22;2913;51.120;6.772;2022-12-18T06:52:03;-3.30;99.90
5775;DHT22;2913;51.120;6.772;2022-12-18T06:54:31;-3.20;99.90
5775;DHT22;2913;51.120;6.772;2022-12-18T06:56:56;-3.20;99.90
5775;DHT22;2913;51.120;6.772;2022-12-18T06:59:22;-3.20;99.90
5775;DHT22;2913;51.120;6.772;2022-12-18T07:01:47;-3.20;99.90
5775;DHT22;2913;51.120;6.772;2022-12-18T07:04:13;-3.30;99.90
5775;DHT22;2913;51.120;6.772;2022-12-18T07:06:39;-3.20;99.90
5775;DHT22;2913;51.120;6.772;2022-12-18T07:09:06;-3.20;99.90
5775;DHT22;2913;51.120;6.772;2022-12-18T07:11:35;-3.20;99.90
5775;DHT22;2913;51.120;6.772;2022-12-18T07:14:03;-3.10;99.90
5775;DHT22;2913;51.120;6.772;2022-12-18T07:16:29;-3.10;99.90
5775;DHT22;2913;51.120;6.772;2022-12-18T07:18:55;-3.10;99.90
5775;DHT22;2913;51.120;6.772;2022-12-18T07:21:22;-3.20;99.90
5775;DHT22;2913;51.120;6.772;2022-12-18T07:23:50;-3.10;99.90
5775;DHT22;2913;51.120;6.772;2022-12-18T07:26:20;-3.10;99.90
5775;DHT22;2913;51.120;6.772;2022-12-18T07:28:48;-3.10;99.90
5775;DHT22;2913;51.120;6.772;2022-12-18T07:31:19;-3.10;99.90
5775;DHT22;2913;51.120;6.772;2022-12-18T07:33:46;-3.10;99.90
5775;DHT22;2913;51.120;6.772;2022-12-18T07:36:12;-3.20;99.90
5775;DHT22;2913;51.120;6.772;2022-12-18T07:38:38;-3.20;99.90
5775;DHT22;2913;51.120;6.772;2022-12-18T07:41:06;-3.20;99.90
5775;DHT22;2913;51.120;6.772;2022-12-18T07:43:33;-3.10;99.90
5775;DHT22;2913;51.120;6.772;2022-12-18T07:46:01;-3.10;99.90
5775;DHT22;2913;51.120;6.772;2022-12-18T07:48:30;-3.10;99.90
5775;DHT22;2913;51.120;6.772;2022-12-18T07:51:04;-3.10;99.90
5775;DHT22;2913;51.120;6.772;2022-12-18T07:53:31;-3.10;99.90
5775;DHT22;2913;51.120;6.772;2022-12-18T07:56:00;-3.10;99.90
5775;DHT22;2913;51.120;6.772;2022-12-18T07:58:26;-3.10;99.90
5775;DHT22;2913;51.120;6.772;2022-12-18T08:00:52;-3.00;99.90
5775;DHT22;2913;51.120;6.772;2022-12-18T08:03:22;-3.00;99.90
5775;DHT22;2913;51.120;6.772;2022-12-18T08:05:48;-3.00;99.90
5775;DHT22;2913;51.120;6.772;2022-12-18T08:08:13;-2.90;99.90
5775;DHT22;2913;51.120;6.772;2022-12-18T08:10:39;-2.80;99.90
5775;DHT22;2913;51.120;6.772;2022-12-18T08:13:05;-2.80;99.90
5775;DHT22;2913;51.120;6.772;2022-12-18T08:15:30;-2.80;99.90
5775;DHT22;2913;51.120;6.772;2022-12-18T08:17:56;-2.70;99.90
5775;DHT22;2913;51.120;6.772;2022-12-18T08:20:22;-2.60;99.90
5775;DHT22;2913;51.120;6.772;2022-12-18T08:22:48;-2.60;99.90
5775;DHT22;2913;51.120;6.772;2022-12-18T08:25:14;-2.60;99.90
5775;DHT22;2913;51.120;6.772;2022-12-18T08:27:39;-2.60;99.90
5775;DHT22;2913;51.120;6.772;2022-12-18T08:30:08;-2.60;99.90
5775;DHT22;2913;51.120;6.772;2022-12-18T08:32:34;-2.50;99.90
5775;DHT22;2913;51.120;6.772;2022-12-18T08:35:00;-2.50;99.90
5775;DHT22;2913;51.120;6.772;2022-12-18T08:37:26;-2.40;99.90
5775;DHT22;2913;51.120;6.772;2022-12-18T08:39:51;-2.40;99.90
5775;DHT22;2913;51.120;6.772;2022-12-18T08:42:19;-2.30;99.90
5775;DHT22;2913;51.120;6.772;2022-12-18T08:45:04;-2.30;99.90
5775;DHT22;2913;51.120;6.772;2022-12-18T08:47:29;-2.20;99.90
5775;DHT22;2913;51.120;6.772;2022-12-18T08:49:57;-2.20;99.90
5775;DHT22;2913;51.120;6.772;2022-12-18T08:52:25;-2.20;99.90
5775;DHT22;2913;51.120;6.772;2022-12-18T08:54:51;-2.10;99.90
5775;DHT22;2913;51.120;6.772;2022-12-18T08:57:19;-2.10;99.90
5775;DHT22;2913;51.120;6.772;2022-12-18T08:59:44;-2.10;99.90
5775;DHT22;2913;51.120;6.772;2022-12-18T09:02:11;-2.00;99.90
5775;DHT22;2913;51.120;6.772;2022-12-18T09:04:39;-2.00;99.90
5775;DHT22;2913;51.120;6.772;2022-12-18T09:07:09;-1.90;99.90
5775;DHT22;2913;51.120;6.772;2022-12-18T09:09:35;-1.90;99.90
5775;DHT22;2913;51.120;6.772;2022-12-18T09:12:01;-1.80;99.90
5775;DHT22;2913;51.120;6.772;2022-12-18T09:14:26;-1.80;99.90
5775;DHT22;2913;51.120;6.772;2022-12-18T09:16:54;-1.70;99.90
5775;DHT22;2913;51.120;6.772;2022-12-18T09:19:27;-1.80;99.90
5775;DHT22;2913;51.120;6.772;2022-12-18T09:21:55;-1.70;99.90
5775;DHT22;2913;51.120;6.772;2022-12-18T09:24:20;-1.70;99.90
5775;DHT22;2913;51.120;6.772;2022-12-18T09:26:48;-1.70;99.90
5775;DHT22;2913;51.120;6.772;2022-12-18T09:29:22;-1.60;99.90
5775;DHT22;2913;51.120;6.772;2022-12-18T09:31:48;-1.50;99.90
5775;DHT22;2913;51.120;6.772;2022-12-18T09:34:16;-1.50;99.90
5775;DHT22;2913;51.120;6.772;2022-12-18T09:36:42;-1.50;99.90
5775;DHT22;2913;51.120;6.772;2022-12-18T09:39:10;-1.40;99.90
5775;DHT22;2913;51.120;6.772;2022-12-18T09:46:50;-1.40;99.90
5775;DHT22;2913;51.120;6.772;2022-12-18T09:49:22;-1.40;99.90
5775;DHT22;2913;51.120;6.772;2022-12-18T09:54:29;-1.30;99.90
5775;DHT22;2913;51.120;6.772;2022-12-18T09:56:57;-1.30;99.90
5775;DHT22;2913;51.120;6.772;2022-12-18T09:59:32;-1.30;99.90
5775;DHT22;2913;51.120;6.772;2022-12-18T10:01:59;-1.20;99.90
5775;DHT22;2913;51.120;6.772;2022-12-18T10:04:29;-1.30;99.90
5775;DHT22;2913;51.120;6.772;2022-12-18T10:07:09;-1.20;99.90
5775;DHT22;2913;51.120;6.772;2022-12-18T10:10:07;-1.20;99.90
5775;DHT22;2913;51.120;6.772;2022-12-18T10:13:07;-1.20;99.90
5775;DHT22;2913;51.120;6.772;2022-12-18T10:15:51;-1.10;99.90
5775;DHT22;2913;51.120;6.772;2022-12-18T10:21:03;-1.00;99.90
5775;DHT22;2913;51.120;6.772;2022-12-18T10:26:09;-0.90;99.90
5775;DHT22;2913;51.120;6.772;2022-12-18T10:28:39;-0.80;99.90
5775;DHT22;2913;51.120;6.772;2022-12-18T10:31:06;-0.70;99.90
5775;DHT22;2913;51.120;6.772;2022-12-18T10:33:33;-0.80;99.90
5775;DHT22;2913;51.120;6.772;2022-12-18T10:35:59;-0.80;99.90
5775;DHT22;2913;51.120;6.772;2022-12-18T10:38:32;-0.70;99.90
5775;DHT22;2913;51.120;6.772;2022-12-18T10:41:05;-0.60;99.90
5775;DHT22;2913;51.120;6.772;2022-12-18T10:43:35;-0.60;99.90
5775;DHT22;2913;51.120;6.772;2022-12-18T10:48:30;-0.50;99.90
5775;DHT22;2913;51.120;6.772;2022-12-18T10:50:56;-0.40;99.90
5775;DHT22;2913;51.120;6.772;2022-12-18T10:53:24;-0.50;99.90
5775;DHT22;2913;51.120;6.772;2022-12-18T10:55:54;-0.40;99.90
5775;DHT22;2913;51.120;6.772;2022-12-18T10:58:27;-0.40;99.90
5775;DHT22;2913;51.120;6.772;2022-12-18T11:01:17;-0.40;99.90
5775;DHT22;2913;51.120;6.772;2022-12-18T11:03:46;-0.30;99.90
5775;DHT22;2913;51.120;6.772;2022-12-18T11:06:17;-0.40;99.90
5775;DHT22;2913;51.120;6.772;2022-12-18T11:08:56;-0.30;99.90
5775;DHT22;2913;51.120;6.772;2022-12-18T11:11:23;-0.30;99.90
5775;DHT22;2913;51.120;6.772;2022-12-18T11:16:21;-0.20;99.90
5775;DHT22;2913;51.120;6.772;2022-12-18T11:18:47;-0.20;99.90
5775;DHT22;2913;51.120;6.772;2022-12-18T11:21:15;-0.20;99.90
5775;DHT22;2913;51.120;6.772;2022-12-18T11:23:49;-0.10;99.90
5775;DHT22;2913;51.120;6.772;2022-12-18T11:26:20;-0.10;99.90
5775;DHT22;2913;51.120;6.772;2022-12-18T11:28:50;0.10;99.90
5775;DHT22;2913;51.120;6.772;2022-12-18T11:31:23;0.10;99.90
5775;DHT22;2913;51.120;6.772;2022-12-18T11:36:24;0.00;99.90
5775;DHT22;2913;51.120;6.772;2022-12-18T11:38:53;-0.10;99.90
5775;DHT22;2913;51.120;6.772;2022-12-18T11:41:30;-0.10;99.90
5775;DHT22;2913;51.120;6.772;2022-12-18T11:44:22;-0.10;99.90
5775;DHT22;2913;51.120;6.772;2022-12-18T11:47:15;-0.10;99.90
5775;DHT22;2913;51.120;6.772;2022-12-18T11:49:43;-0.20;99.90
5775;DHT22;2913;51.120;6.772;2022-12-18T11:52:35;-0.10;99.90
5775;DHT22;2913;51.120;6.772;2022-12-18T11:55:14;-0.10;99.90
5775;DHT22;2913;51.120;6.772;2022-12-18T12:00:20;0.00;99.90
5775;DHT22;2913;51.120;6.772;2022-12-18T12:11:23;-0.10;99.90
5775;DHT22;2913;51.120;6.772;2022-12-18T12:17:17;0.00;99.90
5775;DHT22;2913;51.120;6.772;2022-12-18T12:28:19;0.00;99.90
5775;DHT22;2913;51.120;6.772;2022-12-18T12:31:03;-0.10;99.90
5775;DHT22;2913;51.120;6.772;2022-12-18T12:39:14;-0.10;99.90
5775;DHT22;2913;51.120;6.772;2022-12-18T12:41:46;-0.10;99.90
5775;DHT22;2913;51.120;6.772;2022-12-18T12:44:39;-0.10;99.90
5775;DHT22;2913;51.120;6.772;2022-12-18T12:47:33;-0.20;99.90
5775;DHT22;2913;51.120;6.772;2022-12-18T12:50:11;-0.20;99.90
5775;DHT22;2913;51.120;6.772;2022-12-18T12:52:42;-0.10;99.90
5775;DHT22;2913;51.120;6.772;2022-12-18T12:55:16;-0.10;99.90
5775;DHT22;2913;51.120;6.772;2022-12-18T12:57:48;-0.10;99.90
5775;DHT22;2913;51.120;6.772;2022-12-18T13:00:18;-0.10;99.90
5775;DHT22;2913;51.120;6.772;2022-12-18T13:08:08;-0.10;99.90
5775;DHT22;2913;51.120;6.772;2022-12-18T13:10:39;-0.10;99.90
5775;DHT22;2913;51.120;6.772;2022-12-18T13:15:47;-0.10;99.90
5775;DHT22;2913;51.120;6.772;2022-12-18T13:18:23;-0.10;99.90
5775;DHT22;2913;51.120;6.772;2022-12-18T13:31:09;-0.20;99.90
5775;DHT22;2913;51.120;6.772;2022-12-18T13:33:43;-0.20;99.90
5775;DHT22;2913;51.120;6.772;2022-12-18T13:38:43;-0.10;99.90
5775;DHT22;2913;51.120;6.772;2022-12-18T13:43:48;-0.10;99.90
5775;DHT22;2913;51.120;6.772;2022-12-18T13:46:27;-0.10;99.90
5775;DHT22;2913;51.120;6.772;2022-12-18T13:49:03;0.00;99.90
5775;DHT22;2913;51.120;6.772;2022-12-18T13:51:32;-0.10;99.90
5775;DHT22;2913;51.120;6.772;2022-12-18T13:54:01;0.00;99.90
5775;DHT22;2913;51.120;6.772;2022-12-18T13:56:31;0.00;99.90
5775;DHT22;2913;51.120;6.772;2022-12-18T13:59:12;0.10;99.90
5775;DHT22;2913;51.120;6.772;2022-12-18T14:01:52;0.00;99.90
5775;DHT22;2913;51.120;6.772;2022-12-18T14:04:27;0.00;99.90
5775;DHT22;2913;51.120;6.772;2022-12-18T14:07:17;0.00;99.90
5775;DHT22;2913;51.120;6.772;2022-12-18T14:10:03;-0.10;99.90
5775;DHT22;2913;51.120;6.772;2022-12-18T14:12:33;0.00;99.90
5775;DHT22;2913;51.120;6.772;2022-12-18T14:15:46;-0.10;99.90
5775;DHT22;2913;51.120;6.772;2022-12-18T14:20:55;-0.20;99.90
5775;DHT22;2913;51.120;6.772;2022-12-18T14:25:57;-0.20;99.90
5775;DHT22;2913;51.120;6.772;2022-12-18T14:28:25;-0.20;99.90
5775;DHT22;2913;51.120;6.772;2022-12-18T14:30:54;-0.20;99.90
5775;DHT22;2913;51.120;6.772;2022-12-18T14:33:25;-0.30;99.90
5775;DHT22;2913;51.120;6.772;2022-12-18T14:36:04;-0.30;99.90
5775;DHT22;2913;51.120;6.772;2022-12-18T14:38:38;-0.30;99.90
5775;DHT22;2913;51.120;6.772;2022-12-18T14:41:06;-0.40;99.90
5775;DHT22;2913;51.120;6.772;2022-12-18T14:43:37;-0.40;99.90
5775;DHT22;2913;51.120;6.772;2022-12-18T14:48:50;-0.30;99.90
5775;DHT22;2913;51.120;6.772;2022-12-18T14:51:19;-0.40;99.90
5775;DHT22;2913;51.120;6.772;2022-12-18T14:53:48;-0.40;99.90
5775;DHT22;2913;51.120;6.772;2022-12-18T14:56:27;-0.40;99.90
5775;DHT22;2913;51.120;6.772;2022-12-18T15:01:30;-0.40;99.90
5775;DHT22;2913;51.120;6.772;2022-12-18T15:03:57;-0.40;99.90
5775;DHT22;2913;51.120;6.772;2022-12-18T15:06:35;-0.50;99.90
5775;DHT22;2913;51.120;6.772;2022-12-18T15:09:04;-0.50;99.90
5775;DHT22;2913;51.120;6.772;2022-12-18T15:16:57;-0.50;99.90
5775;DHT22;2913;51.120;6.772;2022-12-18T15:19:34;-0.60;99.90
5775;DHT22;2913;51.120;6.772;2022-12-18T15:22:00;-0.60;99.90
5775;DHT22;2913;51.120;6.772;2022-12-18T15:24:31;-0.60;99.90
5775;DHT22;2913;51.120;6.772;2022-12-18T15:27:00;-0.60;99.90
5775;DHT22;2913;51.120;6.772;2022-12-18T15:29:26;-0.60;99.90
5775;DHT22;2913;51.120;6.772;2022-12-18T15:32:00;-0.70;99.90
5775;DHT22;2913;51.120;6.772;2022-12-18T15:34:29;-0.60;99.90
5775;DHT22;2913;51.120;6.772;2022-12-18T15:36:57;-0.70;99.90
5775;DHT22;2913;51.120;6.772;2022-12-18T15:39:23;-0.70;99.90
5775;DHT22;2913;51.120;6.772;2022-12-18T15:41:49;-0.70;99.90
5775;DHT22;2913;51.120;6.772;2022-12-18T15:44:33;-0.70;99.90
5775;DHT22;2913;51.120;6.772;2022-12-18T15:46:59;-0.70;99.90
5775;DHT22;2913;51.120;6.772;2022-12-18T15:49:27;-0.80;99.90
5775;DHT22;2913;51.120;6.772;2022-12-18T15:51:56;-0.80;99.90
5775;DHT22;2913;51.120;6.772;2022-12-18T15:54:25;-0.80;99.90
5775;DHT22;2913;51.120;6.772;2022-12-18T15:57:10;-0.80;99.90
5775;DHT22;2913;51.120;6.772;2022-12-18T15:59:48;-0.80;99.90
5775;DHT22;2913;51.120;6.772;2022-12-18T16:02:17;-0.90;99.90
5775;DHT22;2913;51.120;6.772;2022-12-18T16:04:43;-0.80;99.90
5775;DHT22;2913;51.120;6.772;2022-12-18T16:07:11;-0.80;99.90
5775;DHT22;2913;51.120;6.772;2022-12-18T16:09:37;-0.80;99.90
5775;DHT22;2913;51.120;6.772;2022-12-18T16:12:04;-0.80;99.90
5775;DHT22;2913;51.120;6.772;2022-12-18T16:14:31;-0.90;99.90
5775;DHT22;2913;51.120;6.772;2022-12-18T16:17:05;-0.90;99.90
5775;DHT22;2913;51.120;6.772;2022-12-18T16:19:31;-0.80;99.90
5775;DHT22;2913;51.120;6.772;2022-12-18T16:21:58;-0.90;99.90
5775;DHT22;2913;51.120;6.772;2022-12-18T16:24:30;-0.80;99.90
5775;DHT22;2913;51.120;6.772;2022-12-18T16:26:58;-0.80;99.90
5775;DHT22;2913;51.120;6.772;2022-12-18T16:29:25;-0.80;99.90
5775;DHT22;2913;51.120;6.772;2022-12-18T16:32:00;-0.90;99.90
5775;DHT22;2913;51.120;6.772;2022-12-18T16:34:30;-0.90;99.90
5775;DHT22;2913;51.120;6.772;2022-12-18T16:37:01;-0.90;99.90
5775;DHT22;2913;51.120;6.772;2022-12-18T16:39:27;-0.90;99.90
5775;DHT22;2913;51.120;6.772;2022-12-18T16:41:56;-0.90;99.90
5775;DHT22;2913;51.120;6.772;2022-12-18T16:44:22;-0.90;99.90
5775;DHT22;2913;51.120;6.772;2022-12-18T16:46:48;-0.80;99.90
5775;DHT22;2913;51.120;6.772;2022-12-18T16:49:18;-0.90;99.90
5775;DHT22;2913;51.120;6.772;2022-12-18T16:51:45;-0.90;99.90
5775;DHT22;2913;51.120;6.772;2022-12-18T16:54:13;-1.00;99.90
5775;DHT22;2913;51.120;6.772;2022-12-18T16:56:39;-0.90;99.90
5775;DHT22;2913;51.120;6.772;2022-12-18T16:59:04;-0.90;99.90
5775;DHT22;2913;51.120;6.772;2022-12-18T17:01:31;-1.00;99.90
5775;DHT22;2913;51.120;6.772;2022-12-18T17:04:01;-0.90;99.90
5775;DHT22;2913;51.120;6.772;2022-12-18T17:06:30;-1.00;99.90
5775;DHT22;2913;51.120;6.772;2022-12-18T17:08:58;-1.00;99.90
5775;DHT22;2913;51.120;6.772;2022-12-18T17:11:26;-1.00;99.90
5775;DHT22;2913;51.120;6.772;2022-12-18T17:13:51;-1.00;99.90
5775;DHT22;2913;51.120;6.772;2022-12-18T17:16:17;-1.00;99.90
5775;DHT22;2913;51.120;6.772;2022-12-18T17:18:43;-1.00;99.90
5775;DHT22;2913;51.120;6.772;2022-12-18T17:21:15;-1.00;99.90
5775;DHT22;2913;51.120;6.772;2022-12-18T17:23:44;-1.00;99.90
5775;DHT22;2913;51.120;6.772;2022-12-18T17:26:11;-1.10;99.90
5775;DHT22;2913;51.120;6.772;2022-12-18T17:28:38;-1.00;99.90
5775;DHT22;2913;51.120;6.772;2022-12-18T17:31:15;-1.10;99.90
5775;DHT22;2913;51.120;6.772;2022-12-18T17:33:41;-1.00;99.90
5775;DHT22;2913;51.120;6.772;2022-12-18T17:36:12;-1.10;99.90
5775;DHT22;2913;51.120;6.772;2022-12-18T17:38:38;-1.00;99.90
5775;DHT22;2913;51.120;6.772;2022-12-18T17:41:05;-1.00;99.90
5775;DHT22;2913;51.120;6.772;2022-12-18T17:43:32;-1.10;99.90
5775;DHT22;2913;51.120;6.772;2022-12-18T17:46:05;-1.10;99.90
5775;DHT22;2913;51.120;6.772;2022-12-18T17:48:31;-1.10;99.90
5775;DHT22;2913;51.120;6.772;2022-12-18T17:51:02;-1.00;99.90
5775;DHT22;2913;51.120;6.772;2022-12-18T17:53:28;-1.00;99.90
5775;DHT22;2913;51.120;6.772;2022-12-18T17:55:55;-1.00;99.90
5775;DHT22;2913;51.120;6.772;2022-12-18T17:58:22;-1.00;99.90
5775;DHT22;2913;51.120;6.772;2022-12-18T18:00:47;-1.00;99.90
5775;DHT22;2913;51.120;6.772;2022-12-18T18:03:13;-1.00;99.90
5775;DHT22;2913;51.120;6.772;2022-12-18T18:05:39;-1.00;99.90
5775;DHT22;2913;51.120;6.772;2022-12-18T18:08:05;-0.90;99.90
5775;DHT22;2913;51.120;6.772;2022-12-18T18:10:34;-0.90;99.90
5775;DHT22;2913;51.120;6.772;2022-12-18T18:13:01;-0.90;99.90
5775;DHT22;2913;51.120;6.772;2022-12-18T18:15:55;-0.90;99.90
5775;DHT22;2913;51.120;6.772;2022-12-18T18:18:20;-0.90;99.90
5775;DHT22;2913;51.120;6.772;2022-12-18T18:20:46;-0.90;99.90
5775;DHT22;2913;51.120;6.772;2022-12-18T18:23:11;-0.90;99.90